Time;durP1;ratioP1;P1;durP2;ratioP2;P2;SDS_P1;SDS_P2;PMS_P1;PMS_P2;Temp;Humidity;BMP_temperature;BMP_pressure;BME280_temperature;BME280_humidity;BME280_pressure;Samples;Min_cycle;Max_cycle;Signal;HPM_P1;HPM_P2
2022/03/06 00:02:15;;;;;;;21.70;12.90;;;0.20;99.90;;;;;;5074711;28;20201;-76
2022/03/06 00:04:42;;;;;;;19.20;12.13;;;0.20;99.90;;;;;;5074884;28;20227;-76
2022/03/06 00:07:09;;;;;;;20.00;13.00;;;0.30;99.90;;;;;;5074490;28;20258;-76
2022/03/06 00:09:37;;;;;;;17.30;11.50;;;0.30;99.90;;;;;;5074044;28;20248;-76
2022/03/06 00:12:04;;;;;;;19.00;13.00;;;0.30;99.90;;;;;;5076774;28;20266;-77
2022/03/06 00:14:31;;;;;;;20.43;11.07;;;0.40;99.90;;;;;;5076577;28;20200;-76
2022/03/06 00:16:58;;;;;;;19.87;12.63;;;0.40;99.90;;;;;;5076354;28;20272;-76
2022/03/06 00:19:24;;;;;;;19.13;12.27;;;0.40;99.90;;;;;;5076571;28;20197;-76
2022/03/06 00:21:51;;;;;;;17.13;11.73;;;0.40;99.90;;;;;;5076943;28;20255;-76
2022/03/06 00:24:18;;;;;;;18.70;11.50;;;0.40;99.90;;;;;;5076266;28;20200;-76
2022/03/06 00:26:45;;;;;;;20.87;12.60;;;0.40;99.90;;;;;;5076643;28;20201;-76
2022/03/06 00:29:13;;;;;;;18.37;11.10;;;0.40;99.90;;;;;;5077037;28;20197;-76
2022/03/06 00:31:40;;;;;;;17.30;10.97;;;0.40;99.90;;;;;;5077368;28;20280;-76
2022/03/06 00:34:07;;;;;;;16.10;10.83;;;0.40;99.90;;;;;;5075912;28;20259;-76
2022/03/06 00:36:33;;;;;;;16.30;10.90;;;0.40;99.90;;;;;;5074754;28;20233;-76
2022/03/06 00:39:00;;;;;;;18.10;11.63;;;0.40;99.90;;;;;;5076316;28;20606;-76
2022/03/06 00:41:27;;;;;;;15.57;10.93;;;0.40;99.90;;;;;;5076393;28;20197;-76
2022/03/06 00:43:55;;;;;;;17.53;11.23;;;0.30;99.90;;;;;;5076243;28;20201;-76
2022/03/06 00:46:21;;;;;;;15.93;11.07;;;0.30;99.90;;;;;;5077052;28;20598;-76
2022/03/06 00:48:48;;;;;;;17.20;11.70;;;0.30;99.90;;;;;;5076590;28;20266;-76
2022/03/06 00:51:15;;;;;;;16.03;10.60;;;0.30;99.90;;;;;;5077506;28;20201;-76
2022/03/06 00:53:42;;;;;;;17.63;11.33;;;0.20;99.90;;;;;;5079654;28;20220;-76
2022/03/06 00:56:09;;;;;;;16.40;11.17;;;0.20;99.90;;;;;;5079564;28;20239;-76
2022/03/06 00:58:37;;;;;;;16.80;11.00;;;0.10;99.90;;;;;;5079953;28;20205;-76
2022/03/06 01:01:06;;;;;;;16.73;11.20;;;0.10;99.90;;;;;;5080860;28;20204;-76
2022/03/06 01:03:33;;;;;;;16.00;10.80;;;0.00;99.90;;;;;;5080530;28;20196;-77
2022/03/06 01:06:00;;;;;;;17.77;10.67;;;0.00;99.90;;;;;;5080342;28;20656;-76
2022/03/06 01:08:27;;;;;;;15.27;10.50;;;-0.10;99.90;;;;;;5080286;28;20276;-76
2022/03/06 01:10:55;;;;;;;16.50;11.00;;;-0.20;99.90;;;;;;5080383;28;20193;-76
2022/03/06 01:13:23;;;;;;;16.43;11.07;;;-0.30;99.90;;;;;;5080265;28;20201;-76
2022/03/06 01:15:50;;;;;;;16.07;11.23;;;-0.30;99.90;;;;;;5079464;28;20250;-78
2022/03/06 01:18:20;;;;;;;15.20;10.43;;;-0.40;99.90;;;;;;5079131;28;20713;-76
2022/03/06 01:20:46;;;;;;;16.90;10.40;;;-0.60;99.90;;;;;;5079775;28;20192;-76
2022/03/06 01:23:13;;;;;;;18.43;11.47;;;-0.70;99.90;;;;;;5079328;28;20200;-76
2022/03/06 01:25:40;;;;;;;17.80;11.90;;;-0.70;99.90;;;;;;5079661;28;20197;-76
2022/03/06 01:28:06;;;;;;;17.83;11.10;;;-0.80;99.90;;;;;;5079258;28;20197;-76
2022/03/06 01:30:33;;;;;;;17.43;12.17;;;-0.90;99.90;;;;;;5079753;28;20541;-76
2022/03/06 01:33:00;;;;;;;19.87;11.63;;;-0.80;99.90;;;;;;5078726;28;20243;-77
2022/03/06 01:35:28;;;;;;;18.27;11.63;;;-0.90;99.90;;;;;;5077620;28;20199;-76
2022/03/06 01:37:55;;;;;;;16.83;10.80;;;-0.80;99.90;;;;;;5077410;28;20245;-76
2022/03/06 01:40:22;;;;;;;18.33;12.07;;;-0.80;99.90;;;;;;5076537;28;20250;-76
2022/03/06 01:42:50;;;;;;;17.73;11.63;;;-0.90;99.90;;;;;;5077160;28;20201;-76
2022/03/06 01:45:19;;;;;;;16.17;11.30;;;-0.90;99.90;;;;;;5076846;28;20251;-76
2022/03/06 01:47:48;;;;;;;16.07;11.07;;;-0.80;99.90;;;;;;5077199;28;20201;-77
2022/03/06 01:50:17;;;;;;;16.80;10.90;;;-0.80;99.90;;;;;;5076440;28;20725;-77
2022/03/06 01:52:46;;;;;;;16.37;11.03;;;-0.80;99.90;;;;;;5076795;28;20201;-76
2022/03/06 01:55:14;;;;;;;16.53;11.17;;;-0.80;99.90;;;;;;5076653;28;20595;-77
2022/03/06 01:57:41;;;;;;;21.30;12.17;;;-0.80;99.90;;;;;;5076829;28;20270;-76
2022/03/06 02:00:12;;;;;;;20.03;11.83;;;-0.90;99.90;;;;;;5076947;28;20208;-76
2022/03/06 02:02:39;;;;;;;20.70;12.50;;;-0.90;99.90;;;;;;5076137;28;20196;-76
2022/03/06 02:05:07;;;;;;;19.93;11.93;;;-0.90;99.90;;;;;;5076070;28;20200;-76
2022/03/06 02:07:34;;;;;;;19.10;12.43;;;-0.90;99.90;;;;;;5076562;28;20197;-77
2022/03/06 02:10:03;;;;;;;20.27;12.63;;;-1.00;99.90;;;;;;5076251;28;20193;-77
2022/03/06 02:12:29;;;;;;;18.10;11.87;;;-1.10;99.90;;;;;;5076453;28;20201;-76
2022/03/06 02:14:58;;;;;;;20.57;13.10;;;-1.10;99.90;;;;;;5076095;28;20197;-77
2022/03/06 02:17:26;;;;;;;18.70;11.97;;;-1.10;99.90;;;;;;5075911;28;20225;-76
2022/03/06 02:19:57;;;;;;;19.63;12.60;;;-1.10;99.90;;;;;;5075961;28;20193;-76
2022/03/06 02:22:27;;;;;;;22.30;12.97;;;-1.10;99.90;;;;;;5075820;28;20231;-76
2022/03/06 02:24:54;;;;;;;17.57;12.03;;;-1.10;99.90;;;;;;5075971;28;20648;-76
2022/03/06 02:27:21;;;;;;;22.10;13.47;;;-1.10;99.90;;;;;;5075802;28;20250;-77
2022/03/06 02:29:47;;;;;;;18.90;11.83;;;-1.10;99.90;;;;;;5075490;28;20201;-76
2022/03/06 02:32:16;;;;;;;21.63;12.97;;;-1.20;99.90;;;;;;5075764;28;20193;-76
2022/03/06 02:34:46;;;;;;;21.87;12.67;;;-1.10;99.90;;;;;;5075945;28;20242;-76
2022/03/06 02:37:15;;;;;;;22.30;12.90;;;-1.10;99.90;;;;;;5075297;28;20879;-77
2022/03/06 02:39:44;;;;;;;21.73;13.00;;;-1.00;99.90;;;;;;5075975;28;20250;-76
2022/03/06 02:42:11;;;;;;;19.80;12.43;;;-1.00;99.90;;;;;;5075841;28;20200;-76
2022/03/06 02:44:38;;;;;;;18.03;12.03;;;-1.00;99.90;;;;;;5076137;28;20201;-76
2022/03/06 02:47:05;;;;;;;19.70;12.53;;;-1.00;99.90;;;;;;5075974;28;20656;-76
2022/03/06 02:49:32;;;;;;;18.03;12.03;;;-1.00;99.90;;;;;;5075573;28;20193;-76
2022/03/06 02:51:59;;;;;;;17.80;11.90;;;-1.00;99.90;;;;;;5075857;28;20247;-77
2022/03/06 02:54:25;;;;;;;19.10;12.70;;;-1.00;99.90;;;;;;5075639;28;20197;-77
2022/03/06 02:56:53;;;;;;;22.60;13.50;;;-1.00;99.90;;;;;;5075186;28;20270;-77
2022/03/06 02:59:20;;;;;;;17.77;12.07;;;-1.00;99.90;;;;;;5075725;28;20209;-77
2022/03/06 03:01:46;;;;;;;17.73;12.30;;;-0.90;99.90;;;;;;5075917;28;20205;-77
2022/03/06 03:04:13;;;;;;;19.90;12.93;;;-0.90;99.90;;;;;;5075712;28;20197;-77
2022/03/06 03:06:40;;;;;;;18.13;11.67;;;-0.90;99.90;;;;;;5075197;28;20205;-77
2022/03/06 03:09:07;;;;;;;19.10;12.80;;;-1.00;99.90;;;;;;5075203;28;20223;-77
2022/03/06 03:11:35;;;;;;;17.30;11.57;;;-0.90;99.90;;;;;;5076257;28;20197;-77
2022/03/06 03:14:03;;;;;;;17.90;11.73;;;-0.90;99.90;;;;;;5076043;28;20201;-77
2022/03/06 03:16:30;;;;;;;18.83;12.30;;;-0.90;99.90;;;;;;5075820;28;20714;-77
2022/03/06 03:18:57;;;;;;;19.43;11.67;;;-0.90;99.90;;;;;;5075869;28;20197;-77
2022/03/06 03:21:23;;;;;;;21.10;12.67;;;-0.90;99.90;;;;;;5075650;28;20250;-77
2022/03/06 03:23:50;;;;;;;21.10;12.97;;;-0.90;99.90;;;;;;5075780;28;20197;-76
2022/03/06 03:26:17;;;;;;;18.20;12.30;;;-0.90;99.90;;;;;;5076204;28;20652;-77
2022/03/06 03:28:43;;;;;;;18.27;12.23;;;-0.90;99.90;;;;;;5074202;28;20610;-76
2022/03/06 03:31:11;;;;;;;16.90;11.33;;;-0.90;99.90;;;;;;5074004;28;20202;-77
2022/03/06 03:33:38;;;;;;;16.77;10.93;;;-0.90;99.90;;;;;;5073921;28;20274;-77
2022/03/06 03:36:05;;;;;;;19.87;12.17;;;-0.80;99.90;;;;;;5073412;28;20196;-76
2022/03/06 03:38:32;;;;;;;21.53;11.80;;;-0.90;99.90;;;;;;5073352;28;20273;-77
2022/03/06 03:41:01;;;;;;;17.90;12.30;;;-0.80;99.90;;;;;;5073629;28;20201;-77
2022/03/06 03:43:27;;;;;;;20.80;12.23;;;-0.80;99.90;;;;;;5074363;28;20193;-78
2022/03/06 03:45:54;;;;;;;21.50;12.33;;;-0.90;99.90;;;;;;5073992;28;20201;-77
2022/03/06 03:48:22;;;;;;;18.10;11.20;;;-0.80;99.90;;;;;;5074764;28;20211;-77
2022/03/06 03:50:48;;;;;;;18.80;12.80;;;-0.80;99.90;;;;;;5076754;28;20193;-77
2022/03/06 03:53:15;;;;;;;18.90;12.07;;;-0.80;99.90;;;;;;5075895;28;20563;-77
2022/03/06 03:55:42;;;;;;;19.30;11.57;;;-0.80;99.90;;;;;;5073528;28;20533;-77
2022/03/06 03:58:08;;;;;;;18.00;11.17;;;-0.90;99.90;;;;;;5078562;28;20221;-77
2022/03/06 04:00:35;;;;;;;20.33;12.43;;;-0.80;99.90;;;;;;5077887;28;20223;-77
2022/03/06 04:03:02;;;;;;;20.10;12.40;;;-0.80;99.90;;;;;;5078143;28;20292;-77
2022/03/06 04:05:30;;;;;;;17.30;11.40;;;-0.80;99.90;;;;;;5077863;28;20246;-77
2022/03/06 04:07:56;;;;;;;20.57;12.40;;;-0.80;99.90;;;;;;5081310;28;20197;-78
2022/03/06 04:10:23;;;;;;;16.63;11.63;;;-0.90;99.90;;;;;;5083857;28;20663;-77
2022/03/06 04:12:50;;;;;;;16.70;11.63;;;-0.80;99.90;;;;;;5084448;28;20648;-78
2022/03/06 04:15:16;;;;;;;16.83;11.40;;;-0.90;99.90;;;;;;5084135;28;20259;-78
2022/03/06 04:17:43;;;;;;;19.90;11.90;;;-0.80;99.90;;;;;;5083994;28;20224;-78
2022/03/06 04:20:10;;;;;;;18.07;11.10;;;-0.80;99.90;;;;;;5083933;28;20222;-77
2022/03/06 04:22:38;;;;;;;18.17;12.03;;;-0.80;99.90;;;;;;5084573;28;20223;-77
2022/03/06 04:25:06;;;;;;;17.10;11.00;;;-0.80;99.90;;;;;;5084108;28;20197;-77
2022/03/06 04:27:32;;;;;;;19.40;12.30;;;-0.80;99.90;;;;;;5087261;28;20193;-77
2022/03/06 04:29:59;;;;;;;17.00;10.40;;;-0.90;99.90;;;;;;5086197;28;20208;-77
2022/03/06 04:32:26;;;;;;;19.27;12.37;;;-0.90;99.90;;;;;;5085102;28;20201;-77
2022/03/06 04:34:52;;;;;;;19.67;12.10;;;-0.80;99.90;;;;;;5084787;28;20200;-77
2022/03/06 04:37:19;;;;;;;17.97;11.93;;;-0.80;99.90;;;;;;5082474;28;20233;-77
2022/03/06 04:39:47;;;;;;;16.20;11.13;;;-0.80;99.90;;;;;;5082020;28;20656;-77
2022/03/06 04:42:13;;;;;;;16.37;11.27;;;-0.80;99.90;;;;;;5081867;28;20197;-77
2022/03/06 04:44:40;;;;;;;15.63;10.93;;;-0.80;99.90;;;;;;5081582;28;20246;-77
2022/03/06 04:47:08;;;;;;;21.23;11.53;;;-0.80;99.90;;;;;;5081514;28;20227;-77
2022/03/06 04:49:35;;;;;;;16.37;11.33;;;-0.80;99.90;;;;;;5083130;28;20219;-77
2022/03/06 04:52:01;;;;;;;20.87;11.93;;;-0.80;99.90;;;;;;5083384;28;20201;-77
2022/03/06 04:54:28;;;;;;;18.17;12.13;;;-0.80;99.90;;;;;;5082740;28;20250;-77
2022/03/06 04:56:56;;;;;;;20.20;12.33;;;-0.80;99.90;;;;;;5081144;28;20231;-77
2022/03/06 04:59:22;;;;;;;18.77;12.43;;;-0.80;99.90;;;;;;5080611;28;20598;-77
2022/03/06 05:01:49;;;;;;;16.53;11.23;;;-0.80;99.90;;;;;;5078185;28;20197;-77
2022/03/06 05:04:16;;;;;;;21.83;11.30;;;-0.80;99.90;;;;;;5078085;28;20200;-77
2022/03/06 05:06:42;;;;;;;18.10;10.80;;;-0.70;99.90;;;;;;5077370;28;20223;-77
2022/03/06 05:09:09;;;;;;;17.83;11.60;;;-0.80;99.90;;;;;;5076513;28;20250;-77
2022/03/06 05:11:36;;;;;;;18.90;11.87;;;-0.80;99.90;;;;;;5077019;28;20644;-77
2022/03/06 05:14:04;;;;;;;16.17;11.00;;;-0.80;99.90;;;;;;5077539;28;20235;-77
2022/03/06 05:16:30;;;;;;;18.57;10.97;;;-0.80;99.90;;;;;;5077063;28;20278;-77
2022/03/06 05:18:57;;;;;;;18.77;11.47;;;-0.80;99.90;;;;;;5077009;28;20225;-77
2022/03/06 05:21:24;;;;;;;16.30;11.27;;;-0.90;99.90;;;;;;5077078;28;20197;-77
2022/03/06 05:23:50;;;;;;;18.13;11.43;;;-0.90;99.90;;;;;;5076679;28;20197;-77
2022/03/06 05:26:17;;;;;;;16.80;10.63;;;-0.90;99.90;;;;;;5076936;28;20197;-77
2022/03/06 05:28:44;;;;;;;17.60;11.77;;;-0.90;99.90;;;;;;5076737;28;20201;-77
2022/03/06 05:31:12;;;;;;;19.53;11.10;;;-0.90;99.90;;;;;;5076710;28;20209;-77
2022/03/06 05:33:38;;;;;;;17.37;10.90;;;-1.00;99.90;;;;;;5076266;28;20193;-77
2022/03/06 05:36:06;;;;;;;16.60;11.67;;;-1.00;99.90;;;;;;5076053;28;20204;-77
2022/03/06 05:38:32;;;;;;;17.13;11.80;;;-1.00;99.90;;;;;;5075962;28;20228;-77
2022/03/06 05:40:59;;;;;;;18.00;12.43;;;-1.00;99.90;;;;;;5076198;28;20664;-77
2022/03/06 05:43:26;;;;;;;18.50;12.03;;;-1.00;99.90;;;;;;5076063;28;20200;-77
2022/03/06 05:45:52;;;;;;;19.17;12.03;;;-1.00;99.90;;;;;;5076293;28;20254;-77
2022/03/06 05:48:21;;;;;;;21.47;12.17;;;-1.10;99.90;;;;;;5075334;28;20250;-77
2022/03/06 05:50:48;;;;;;;19.87;13.20;;;-1.00;99.90;;;;;;5075464;28;20201;-77
2022/03/06 05:53:15;;;;;;;19.43;12.80;;;-1.00;99.90;;;;;;5075396;28;20246;-77
2022/03/06 05:55:42;;;;;;;20.13;12.70;;;-1.10;99.90;;;;;;5074972;28;20671;-77
2022/03/06 05:58:09;;;;;;;19.00;12.60;;;-1.10;99.90;;;;;;5075021;28;20260;-76
2022/03/06 06:00:36;;;;;;;16.10;11.07;;;-1.10;99.90;;;;;;5075240;28;20196;-76
2022/03/06 06:03:03;;;;;;;17.40;11.63;;;-1.10;99.90;;;;;;5075205;28;20197;-76
2022/03/06 06:05:31;;;;;;;18.70;11.67;;;-1.10;99.90;;;;;;5076202;28;20537;-76
2022/03/06 06:07:58;;;;;;;18.17;12.00;;;-1.20;99.90;;;;;;5076501;28;20205;-75
2022/03/06 06:10:25;;;;;;;18.70;12.20;;;-1.10;99.90;;;;;;5076422;28;20215;-76
2022/03/06 06:12:52;;;;;;;18.37;11.63;;;-1.20;99.90;;;;;;5075868;28;20652;-76
2022/03/06 06:15:18;;;;;;;16.93;11.03;;;-1.10;99.90;;;;;;5076296;28;20193;-76
2022/03/06 06:17:45;;;;;;;16.40;11.47;;;-1.10;99.90;;;;;;5057876;28;20224;-77
2022/03/06 06:20:12;;;;;;;21.23;12.20;;;-1.00;99.90;;;;;;5075946;28;20201;-76
2022/03/06 06:22:41;;;;;;;18.67;11.73;;;-1.00;99.90;;;;;;5076313;28;20200;-76
2022/03/06 06:25:08;;;;;;;20.43;12.20;;;-1.00;99.90;;;;;;5076392;28;20717;-77
2022/03/06 06:27:35;;;;;;;18.70;12.40;;;-1.00;99.90;;;;;;5076397;28;20204;-76
2022/03/06 06:30:02;;;;;;;18.63;12.43;;;-0.80;99.90;;;;;;5076795;28;20259;-76
2022/03/06 06:32:28;;;;;;;19.77;12.87;;;-0.80;99.90;;;;;;5076825;28;20305;-76
2022/03/06 06:34:55;;;;;;;20.33;12.30;;;-0.80;99.90;;;;;;5076512;28;20227;-76
2022/03/06 06:37:21;;;;;;;18.77;12.07;;;-0.70;99.90;;;;;;5076621;28;20225;-76
2022/03/06 06:39:49;;;;;;;19.40;11.77;;;-0.60;99.90;;;;;;5076389;28;20219;-76
2022/03/06 06:42:16;;;;;;;17.77;11.83;;;-0.70;99.90;;;;;;5076163;28;20206;-76
2022/03/06 06:44:43;;;;;;;17.13;11.53;;;-0.60;99.90;;;;;;5075519;28;20603;-76
2022/03/06 06:47:09;;;;;;;17.47;12.10;;;-0.60;99.90;;;;;;5075672;28;20197;-76
2022/03/06 06:49:36;;;;;;;17.63;12.33;;;-0.50;99.90;;;;;;5057247;28;20193;-76
2022/03/06 06:52:03;;;;;;;18.40;12.53;;;-0.60;99.90;;;;;;5075224;28;20197;-76
2022/03/06 06:54:30;;;;;;;16.27;11.30;;;-0.50;99.90;;;;;;5075078;28;20702;-76
2022/03/06 06:56:57;;;;;;;18.47;12.53;;;-0.50;99.90;;;;;;5075711;28;20205;-76
2022/03/06 06:59:24;;;;;;;16.83;10.73;;;-0.50;99.90;;;;;;5075354;28;20628;-76
2022/03/06 07:01:51;;;;;;;16.97;12.07;;;-0.60;99.90;;;;;;5077347;28;20193;-76
2022/03/06 07:04:18;;;;;;;18.17;11.90;;;-0.60;99.90;;;;;;5078083;28;20262;-76
2022/03/06 07:06:44;;;;;;;19.07;11.90;;;-0.60;99.90;;;;;;5077653;28;20293;-76
2022/03/06 07:09:11;;;;;;;15.40;11.90;;;-0.60;99.90;;;;;;5076837;28;20204;-76
2022/03/06 07:11:38;;;;;;;20.10;12.00;;;-0.60;99.90;;;;;;5076326;28;20656;-76
2022/03/06 07:14:06;;;;;;;17.43;12.40;;;-0.60;99.90;;;;;;5077367;28;20201;-76
2022/03/06 07:16:32;;;;;;;19.23;11.93;;;-0.50;99.90;;;;;;5077094;28;20231;-76
2022/03/06 07:18:59;;;;;;;20.17;13.07;;;-0.40;99.90;;;;;;5078330;28;20301;-77
2022/03/06 07:21:26;;;;;;;19.20;12.03;;;-0.30;99.90;;;;;;5076922;28;20283;-78
2022/03/06 07:23:52;;;;;;;20.23;12.93;;;-0.20;99.90;;;;;;5076240;28;20346;-76
2022/03/06 07:26:19;;;;;;;16.73;12.30;;;-0.20;99.90;;;;;;5075533;28;20278;-76
2022/03/06 07:28:45;;;;;;;20.90;12.13;;;0.00;99.90;;;;;;5075482;28;20201;-76
2022/03/06 07:31:13;;;;;;;17.90;12.40;;;0.10;99.90;;;;;;5075137;28;20193;-76
2022/03/06 07:33:40;;;;;;;18.53;12.00;;;0.20;99.90;;;;;;5076202;28;20219;-76
2022/03/06 07:36:07;;;;;;;18.40;12.87;;;0.30;99.90;;;;;;5075972;28;20709;-76
2022/03/06 07:38:33;;;;;;;15.80;11.07;;;0.30;99.90;;;;;;5077168;28;20240;-76
2022/03/06 07:41:00;;;;;;;17.30;11.70;;;0.50;99.90;;;;;;5077504;28;20193;-76
2022/03/06 07:43:27;;;;;;;16.70;11.50;;;0.50;99.90;;;;;;5078092;28;20247;-76
2022/03/06 07:45:53;;;;;;;16.33;12.13;;;0.60;99.90;;;;;;5077064;28;20247;-76
2022/03/06 07:48:21;;;;;;;16.17;11.63;;;0.60;99.90;;;;;;5074741;28;20197;-75
2022/03/06 07:50:48;;;;;;;19.57;12.10;;;0.60;99.90;;;;;;5074726;28;20201;-77
2022/03/06 07:53:15;;;;;;;20.87;12.00;;;0.70;99.90;;;;;;5076228;28;20270;-76
2022/03/06 07:55:41;;;;;;;19.87;12.07;;;0.70;99.90;;;;;;5075289;28;20228;-76
2022/03/06 07:58:08;;;;;;;17.23;11.03;;;0.80;99.90;;;;;;5074571;28;20216;-76
2022/03/06 08:00:35;;;;;;;20.27;11.33;;;0.90;99.90;;;;;;5076425;28;20193;-76
2022/03/06 08:03:01;;;;;;;14.40;10.90;;;1.00;99.90;;;;;;5079210;28;20236;-76
2022/03/06 08:05:29;;;;;;;14.47;10.63;;;1.20;99.90;;;;;;5079897;28;20223;-76
2022/03/06 08:07:56;;;;;;;15.37;10.73;;;1.40;99.90;;;;;;5079459;28;20201;-76
2022/03/06 08:10:23;;;;;;;14.70;10.90;;;1.70;99.90;;;;;;5078754;28;20242;-76
2022/03/06 08:12:50;;;;;;;16.17;11.13;;;1.80;99.90;;;;;;5078328;28;20708;-76
2022/03/06 08:15:17;;;;;;;15.93;10.80;;;2.00;99.90;;;;;;5078649;28;20279;-76
2022/03/06 08:17:43;;;;;;;13.93;10.50;;;2.10;99.90;;;;;;5079245;28;20205;-76
2022/03/06 08:20:11;;;;;;;14.30;10.47;;;2.30;99.90;;;;;;5079820;28;20228;-76
2022/03/06 08:22:39;;;;;;;15.50;11.40;;;2.40;99.90;;;;;;5079553;28;20203;-76
2022/03/06 08:25:07;;;;;;;16.13;10.63;;;2.50;99.90;;;;;;5079540;28;20200;-76
2022/03/06 08:27:34;;;;;;;14.80;10.80;;;2.70;99.90;;;;;;5078974;28;20701;-76
2022/03/06 08:30:01;;;;;;;15.50;10.93;;;2.80;99.90;;;;;;5079299;28;20266;-76
2022/03/06 08:32:28;;;;;;;17.33;12.50;;;3.00;99.90;;;;;;5079548;28;20264;-76
2022/03/06 08:34:55;;;;;;;15.00;11.37;;;3.00;99.90;;;;;;5080323;28;20616;-76
2022/03/06 08:37:22;;;;;;;17.63;12.40;;;3.10;99.90;;;;;;5079599;28;20654;-77
2022/03/06 08:39:50;;;;;;;15.43;11.80;;;3.10;99.90;;;;;;5080190;28;20224;-76
2022/03/06 08:42:17;;;;;;;16.83;11.83;;;3.20;99.90;;;;;;5081070;28;20201;-78
2022/03/06 08:44:44;;;;;;;15.20;11.40;;;3.40;99.90;;;;;;5081998;28;20674;-78
2022/03/06 08:47:11;;;;;;;19.60;11.43;;;3.60;99.90;;;;;;5084365;28;20212;-78
2022/03/06 08:49:37;;;;;;;16.70;11.50;;;3.80;99.90;;;;;;5080878;28;20250;-79
2022/03/06 08:52:05;;;;;;;17.87;12.20;;;4.00;99.90;;;;;;5081894;28;20196;-77
2022/03/06 08:54:32;;;;;;;17.30;12.13;;;4.00;99.90;;;;;;5086233;28;20197;-80
2022/03/06 08:57:00;;;;;;;17.93;11.27;;;4.10;99.90;;;;;;5073421;28;20211;-81
2022/03/06 08:59:27;;;;;;;16.37;11.30;;;4.10;99.90;;;;;;5084973;28;20246;-81
2022/03/06 09:01:55;;;;;;;17.10;12.37;;;4.30;99.90;;;;;;5087158;28;20291;-79
2022/03/06 09:04:22;;;;;;;17.23;12.13;;;4.60;99.90;;;;;;5087496;28;20747;-81
2022/03/06 09:06:49;;;;;;;20.33;11.77;;;4.80;99.90;;;;;;5085805;28;20245;-78
2022/03/06 09:09:16;;;;;;;16.00;10.80;;;5.00;99.90;;;;;;5081923;28;20242;-78
2022/03/06 09:11:45;;;;;;;15.30;11.80;;;5.20;99.70;;;;;;5081611;28;20201;-78
2022/03/06 09:14:12;;;;;;;16.10;11.67;;;5.60;97.30;;;;;;5082290;28;20201;-78
2022/03/06 09:16:39;;;;;;;16.93;11.50;;;5.80;94.10;;;;;;5076528;28;20196;-76
2022/03/06 09:19:06;;;;;;;19.20;11.60;;;6.00;92.90;;;;;;5075737;28;20266;-80
2022/03/06 09:21:33;;;;;;;18.00;11.50;;;6.10;81.70;;;;;;5075695;28;20277;-87
2022/03/06 09:24:01;;;;;;;16.13;11.03;;;6.50;73.10;;;;;;5075833;28;20196;-86
2022/03/06 09:26:27;;;;;;;14.20;11.00;;;6.90;69.00;;;;;;5076055;28;20201;-89
2022/03/06 09:28:54;;;;;;;13.67;10.67;;;6.90;63.70;;;;;;5071616;28;20294;-87
2022/03/06 09:31:22;;;;;;;16.40;11.67;;;6.60;61.40;;;;;;5075513;28;20599;-90
2022/03/06 09:33:49;;;;;;;13.70;10.50;;;6.60;63.30;;;;;;5087628;28;20620;-87
2022/03/06 09:36:16;;;;;;;11.17;9.03;;;6.30;57.60;;;;;;5093593;28;20834;-87
2022/03/06 09:38:42;;;;;;;11.87;9.07;;;5.80;56.50;;;;;;5079694;28;20232;-89
2022/03/06 09:41:15;;;;;;;13.37;9.87;;;5.70;55.80;;;;;;5085925;28;20223;-86
2022/03/06 09:43:42;;;;;;;12.63;9.70;;;5.50;53.20;;;;;;5084724;28;20200;-86
2022/03/06 09:46:09;;;;;;;11.93;9.07;;;5.30;54.40;;;;;;5086600;28;20219;-80
2022/03/06 09:48:37;;;;;;;13.00;9.80;;;5.10;53.60;;;;;;5096148;28;20244;-80
2022/03/06 09:51:06;;;;;;;10.93;9.53;;;4.90;51.00;;;;;;5088257;28;20177;-79
2022/03/06 09:53:33;;;;;;;13.38;10.77;;;4.70;52.00;;;;;;5085225;28;20440;-77
2022/03/06 09:56:00;;;;;;;12.70;9.63;;;4.70;54.20;;;;;;5085921;28;20224;-80
2022/03/06 09:58:27;;;;;;;13.40;9.83;;;4.60;56.30;;;;;;5089012;28;20254;-80
2022/03/06 10:00:54;;;;;;;11.17;9.07;;;4.50;55.00;;;;;;5092736;28;20204;-78
2022/03/06 10:03:22;;;;;;;13.07;10.07;;;4.30;53.00;;;;;;5089176;28;20347;-78
2022/03/06 10:05:51;;;;;;;15.23;10.77;;;4.30;52.20;;;;;;5088314;28;20453;-79
2022/03/06 10:08:21;;;;;;;12.50;10.00;;;4.30;53.50;;;;;;5087214;28;20193;-76
2022/03/06 10:10:49;;;;;;;14.10;9.97;;;4.20;53.30;;;;;;5088985;28;20625;-81
2022/03/06 10:13:21;;;;;;;11.87;9.13;;;4.20;53.60;;;;;;5090640;28;20223;-77
2022/03/06 10:16:02;;;;;;;12.53;9.23;;;4.20;50.40;;;;;;5089977;28;20193;-78
2022/03/06 10:18:31;;;;;;;12.48;10.07;;;4.20;50.60;;;;;;5092492;28;20446;-82
2022/03/06 10:21:13;;;;;;;12.57;9.60;;;4.20;49.50;;;;;;5070852;28;20452;-78
2022/03/06 10:23:40;;;;;;;11.37;9.03;;;4.30;48.40;;;;;;5084935;28;20200;-77
2022/03/06 10:26:09;;;;;;;11.27;9.17;;;4.20;46.80;;;;;;5085191;28;20610;-76
2022/03/06 10:28:44;;;;;;;12.97;8.90;;;4.30;45.60;;;;;;5080580;28;20265;-76
2022/03/06 10:31:11;;;;;;;13.80;9.30;;;4.20;44.50;;;;;;5074216;28;20273;-75
2022/03/06 10:33:39;;;;;;;13.47;9.07;;;4.20;45.40;;;;;;5075829;28;20203;-75
2022/03/06 10:36:10;;;;;;;11.27;8.80;;;4.40;44.10;;;;;;5078526;28;20266;-75
2022/03/06 10:38:37;;;;;;;13.00;8.80;;;4.40;42.70;;;;;;5077980;28;20235;-76
2022/03/06 10:41:12;;;;;;;12.80;9.53;;;4.60;43.80;;;;;;5082056;28;20225;-77
2022/03/06 10:43:40;;;;;;;10.50;8.70;;;4.70;43.60;;;;;;5078206;28;20204;-76
2022/03/06 10:46:09;;;;;;;11.63;9.03;;;4.90;42.10;;;;;;5077547;28;20678;-76
2022/03/06 10:48:36;;;;;;;10.60;8.50;;;5.10;42.00;;;;;;5076101;28;20235;-77
2022/03/06 10:51:05;;;;;;;11.80;9.50;;;5.30;41.00;;;;;;5072819;28;20216;-76
2022/03/06 10:53:33;;;;;;;10.37;8.70;;;6.30;42.20;;;;;;5070450;28;20204;-75
2022/03/06 10:56:08;;;;;;;9.63;8.63;;;7.30;37.80;;;;;;5070648;28;20721;-75
2022/03/06 10:58:38;;;;;;;14.30;9.63;;;7.80;36.20;;;;;;5070515;28;20196;-77
2022/03/06 11:01:05;;;;;;;13.25;9.93;;;7.30;32.40;;;;;;5070366;28;20454;-74
2022/03/06 11:03:34;;;;;;;10.70;9.60;;;7.50;32.50;;;;;;5069470;28;20742;-74
2022/03/06 11:06:02;;;;;;;10.43;9.20;;;7.40;30.80;;;;;;5069966;28;20205;-74
2022/03/06 11:08:28;;;;;;;10.40;9.30;;;9.70;30.60;;;;;;5069731;28;20515;-75
2022/03/06 11:10:57;;;;;;;10.53;9.43;;;9.40;27.80;;;;;;5070669;28;20205;-74
2022/03/06 11:13:24;;;;;;;10.00;8.97;;;9.60;26.70;;;;;;5070497;28;20666;-74
2022/03/06 11:15:51;;;;;;;10.93;9.30;;;9.40;26.00;;;;;;5070841;28;20209;-74
2022/03/06 11:18:19;;;;;;;10.50;9.00;;;9.10;24.90;;;;;;5070213;28;20197;-74
2022/03/06 11:20:47;;;;;;;10.37;9.33;;;9.20;25.80;;;;;;5070614;28;20224;-74
2022/03/06 11:23:22;;;;;;;11.87;9.87;;;9.50;25.00;;;;;;5070567;28;20729;-74
2022/03/06 11:26:07;;;;;;;10.57;9.47;;;9.90;24.10;;;;;;5070728;28;20298;-73
2022/03/06 11:28:47;;;;;;;10.53;9.27;;;9.40;24.40;;;;;;5070476;28;20204;-74
2022/03/06 11:31:14;;;;;;;9.77;8.77;;;9.20;25.00;;;;;;5069883;28;20197;-75
2022/03/06 11:33:42;;;;;;;11.07;9.40;;;8.50;25.30;;;;;;5070268;28;20208;-74
2022/03/06 11:36:20;;;;;;;12.43;9.80;;;8.20;26.00;;;;;;5069817;28;20611;-74
2022/03/06 11:38:48;;;;;;;11.87;9.40;;;7.90;26.50;;;;;;5070515;28;20254;-75
2022/03/06 11:41:16;;;;;;;10.90;9.63;;;7.50;26.70;;;;;;5069907;28;21011;-74
2022/03/06 11:43:46;;;;;;;11.03;9.27;;;6.70;26.20;;;;;;5071123;28;20193;-77
2022/03/06 11:46:16;;;;;;;10.30;9.10;;;6.20;27.70;;;;;;5071365;28;20272;-75
2022/03/06 11:49:10;;;;;;;12.50;9.47;;;6.70;28.50;;;;;;5070648;28;20563;-75
2022/03/06 11:51:47;;;;;;;12.10;9.63;;;7.30;27.20;;;;;;5070466;28;20702;-78
2022/03/06 11:54:22;;;;;;;10.70;9.40;;;6.30;27.10;;;;;;5070278;28;20216;-76
2022/03/06 11:56:56;;;;;;;10.70;8.97;;;6.60;27.80;;;;;;5070656;28;20678;-73
2022/03/06 11:59:36;;;;;;;12.97;8.97;;;5.90;27.20;;;;;;5070954;28;20204;-76
2022/03/06 12:02:07;;;;;;;11.77;9.65;;;6.10;27.90;;;;;;5070145;28;20438;-75
2022/03/06 12:04:38;;;;;;;11.83;9.27;;;6.40;27.70;;;;;;5070700;28;20767;-76
2022/03/06 12:07:06;;;;;;;14.40;9.63;;;6.50;27.70;;;;;;5072533;28;20232;-78
2022/03/06 12:09:36;;;;;;;14.57;9.50;;;6.60;27.80;;;;;;5073966;28;20250;-77
2022/03/06 12:12:06;;;;;;;14.57;9.27;;;6.70;27.80;;;;;;5074033;28;20292;-78
2022/03/06 12:14:36;;;;;;;10.67;9.43;;;7.10;28.00;;;;;;5073141;28;20200;-81
2022/03/06 12:17:31;;;;;;;12.00;9.87;;;6.70;27.80;;;;;;5075275;28;20228;-85
2022/03/06 12:20:26;;;;;;;11.17;8.90;;;6.60;28.50;;;;;;5074346;28;20680;-85
2022/03/06 12:23:06;;;;;;;11.23;9.80;;;6.80;28.80;;;;;;5073426;28;20233;-78
2022/03/06 12:25:37;;;;;;;12.07;9.43;;;7.00;28.00;;;;;;5074144;28;20211;-86
2022/03/06 12:28:26;;;;;;;12.50;9.40;;;6.60;27.90;;;;;;5074846;28;20652;-81
2022/03/06 12:30:54;;;;;;;11.80;9.17;;;6.30;27.40;;;;;;5076008;28;20196;-78
2022/03/06 12:33:39;;;;;;;11.67;10.10;;;6.60;27.80;;;;;;5074269;28;20212;-81
2022/03/06 12:36:18;;;;;;;11.10;9.67;;;6.80;27.70;;;;;;5074637;28;20239;-78
2022/03/06 12:38:46;;;;;;;11.10;9.53;;;6.80;27.50;;;;;;5073479;28;20250;-79